Weather at Shortts Lake Water Aerodrome [CLOSED]

Public forecast

Using degrees Celsius for public forecast. Weather courtesy of forecast.io.

Closest aviation weather report (METAR) to Shortts Lake Water Aerodrome

Report is more than 6 hours old.

Closest report is Halifax / Stanfield International Airport, 22.8 nm (42.3 km) SSW.

2024/06/24 06:00 (retrieved 1 day ago)

CYHZ 240600Z 20016G24KT 1/4SM R23/2400V3000FT/D R14/3500V4000FT/D FG VV002 17/17 A2955 RMK FG8 SLP008 DENSITY ALT 1300FT

Closest aviation forecast (TAF) to Shortts Lake Water Aerodrome

Forecast is more than 6 hours old.

Closest forecast is Halifax / Stanfield International Airport, 22.8 nm (42.3 km) SSW.

2024/06/24 21:42 (retrieved 11 hours ago)

TAF CYHZ 242040Z 2421/2518 19010KT 1/2SM FG OVC002 TEMPO 2421/2504 1/8SM -SHRA FG PROB30 2501/2504 3/4SM +TSRA BR OVC008CB FM250400 VRB03KT 1/4SM -SHRA FG VV002 PROB40 2504/2512 1/8SM FG FM251200 05007KT P6SM OVC004 FM251700 08007KT P6SM -SHRA SCT006 OVC012 RMK NXT FCST BY 250000Z